createdAt,value
2019-05-07T00:00:12.642Z,10.17
2019-05-07T00:02:42.719Z,9.73
2019-05-07T00:05:11.970Z,10.10
2019-05-07T00:07:39.138Z,7.27
2019-05-07T00:10:06.797Z,7.97
2019-05-07T00:12:34.451Z,12.33
2019-05-07T00:15:04.545Z,12.13
2019-05-07T00:17:32.290Z,10.27
2019-05-07T00:20:02.172Z,11.80
2019-05-07T00:22:29.536Z,6.20
2019-05-07T00:24:57.200Z,6.53
2019-05-07T00:27:24.864Z,5.63
2019-05-07T00:29:52.563Z,7.23
2019-05-07T00:32:22.162Z,10.40
2019-05-07T00:34:54.326Z,8.30
2019-05-07T00:37:29.419Z,7.33
2019-05-07T00:40:08.560Z,8.53
2019-05-07T00:42:57.189Z,8.90
2019-05-07T00:45:32.677Z,7.63
2019-05-07T00:48:00.378Z,7.87
2019-05-07T00:50:33.127Z,7.67
2019-05-07T00:53:02.126Z,8.30
2019-05-07T00:55:29.939Z,11.27
2019-05-07T00:57:57.604Z,11.20
2019-05-07T01:00:25.256Z,7.53
2019-05-07T01:02:52.921Z,8.57
2019-05-07T01:05:22.929Z,8.57
2019-05-07T01:07:49.942Z,9.83
2019-05-07T01:10:17.596Z,8.17
2019-05-07T01:12:45.260Z,9.23
2019-05-07T01:15:12.995Z,9.33
2019-05-07T01:17:42.568Z,9.23
2019-05-07T01:20:12.421Z,10.10
2019-05-07T01:22:39.442Z,8.33
2019-05-07T01:25:07.303Z,11.27
2019-05-07T01:27:34.984Z,14.83
2019-05-07T01:30:02.764Z,9.00
2019-05-07T01:32:36.610Z,10.93
2019-05-07T01:35:12.847Z,8.27
2019-05-07T01:37:42.085Z,9.73
2019-05-07T01:40:09.182Z,9.77
2019-05-07T01:42:36.850Z,9.17
2019-05-07T01:45:04.709Z,9.10
2019-05-07T01:47:33.194Z,10.27
2019-05-07T01:50:02.981Z,7.83
2019-05-07T01:52:30.372Z,8.50
2019-05-07T01:54:58.052Z,7.17
2019-05-07T01:57:25.719Z,9.87
2019-05-07T01:59:53.375Z,13.03
2019-05-07T02:02:28.085Z,7.03
2019-05-07T02:05:03.341Z,6.90
2019-05-07T02:07:35.033Z,8.17
2019-05-07T02:10:12.608Z,8.83
2019-05-07T02:12:42.530Z,7.13
2019-05-07T02:15:11.851Z,8.13
2019-05-07T02:17:39.362Z,11.53
2019-05-07T02:20:07.055Z,7.87
2019-05-07T02:22:34.720Z,9.43
2019-05-07T02:25:03.377Z,10.13
2019-05-07T02:27:32.898Z,8.63
2019-05-07T02:30:04.275Z,7.73
2019-05-07T02:32:33.115Z,10.97
2019-05-07T02:34:59.478Z,11.80
2019-05-07T02:37:46.431Z,8.37
2019-05-07T02:40:22.869Z,7.77
2019-05-07T02:42:53.822Z,9.20
2019-05-07T02:45:27.665Z,10.60
2019-05-07T02:47:55.333Z,7.80
2019-05-07T02:50:29.028Z,10.10
2019-05-07T02:53:06.378Z,13.00
2019-05-07T02:55:38.131Z,10.10
2019-05-07T02:58:05.790Z,8.67
2019-05-07T03:00:33.737Z,10.37
2019-05-07T03:03:04.229Z,7.37
2019-05-07T03:05:30.844Z,9.03
2019-05-07T03:07:58.512Z,9.33
2019-05-07T03:10:26.154Z,8.53
2019-05-07T03:12:53.950Z,8.53
2019-05-07T03:15:24.190Z,6.93
2019-05-07T03:17:53.690Z,8.37
2019-05-07T03:20:24.749Z,10.30
2019-05-07T03:22:53.887Z,6.60
2019-05-07T03:25:26.356Z,9.33
2019-05-07T03:27:54.012Z,7.97
2019-05-07T03:30:35.494Z,10.47
2019-05-07T03:33:08.270Z,7.47
2019-05-07T03:35:45.905Z,8.27
2019-05-07T03:38:13.008Z,8.93
2019-05-07T03:40:39.466Z,8.13
2019-05-07T03:43:07.205Z,6.63
2019-05-07T03:45:43.262Z,6.43
2019-05-07T03:48:13.804Z,8.33
2019-05-07T03:50:43.085Z,8.07
2019-05-07T03:53:13.868Z,10.63
2019-05-07T03:55:40.361Z,8.10
2019-05-07T03:58:08.013Z,9.23
2019-05-07T04:00:35.673Z,6.77
2019-05-07T04:03:03.800Z,8.57
2019-05-07T04:05:34.221Z,6.80
2019-05-07T04:08:03.318Z,9.37
2019-05-07T04:10:33.502Z,8.83
2019-05-07T04:12:59.769Z,8.93
2019-05-07T04:15:27.438Z,6.77
2019-05-07T04:17:55.180Z,7.80
2019-05-07T04:20:23.920Z,7.40
2019-05-07T04:22:53.534Z,8.80
2019-05-07T04:25:34.316Z,8.87
2019-05-07T04:28:06.727Z,8.67
2019-05-07T04:30:34.898Z,7.53
2019-05-07T04:33:04.287Z,7.43
2019-05-07T04:35:37.925Z,9.23
2019-05-07T04:38:06.846Z,6.97
2019-05-07T04:40:35.016Z,7.43
2019-05-07T04:43:02.972Z,9.83
2019-05-07T04:45:33.423Z,8.20
2019-05-07T04:48:02.815Z,8.87
2019-05-07T04:50:39.486Z,8.23
2019-05-07T04:53:02.775Z,9.13
2019-05-07T04:55:33.349Z,8.13
2019-05-07T04:58:02.754Z,9.13
2019-05-07T05:00:29.501Z,7.70
2019-05-07T05:03:09.117Z,10.17
2019-05-07T05:05:36.820Z,7.17
2019-05-07T05:08:04.472Z,6.67
2019-05-07T05:10:33.701Z,8.93
2019-05-07T05:13:03.216Z,7.40
2019-05-07T05:15:32.065Z,7.20
2019-05-07T05:18:02.439Z,8.50
2019-05-07T05:20:36.547Z,7.33
2019-05-07T05:23:09.390Z,11.70
2019-05-07T05:25:39.336Z,8.10
2019-05-07T05:28:07.118Z,9.07
2019-05-07T05:30:42.404Z,8.30
2019-05-07T05:33:09.809Z,8.63
2019-05-07T05:35:37.531Z,10.13
2019-05-07T05:38:05.209Z,7.00
2019-05-07T05:40:32.864Z,7.87
2019-05-07T05:43:07.828Z,9.10
2019-05-07T05:45:39.178Z,11.30
2019-05-07T05:48:08.506Z,13.37
2019-05-07T05:50:55.398Z,8.40
2019-05-07T05:53:32.556Z,9.40
2019-05-07T05:56:02.399Z,8.67
2019-05-07T05:58:43.137Z,9.63
2019-05-07T06:01:16.623Z,8.90
2019-05-07T06:03:53.433Z,9.60
2019-05-07T06:06:32.577Z,9.07
2019-05-07T06:09:05.505Z,13.87
2019-05-07T06:11:42.891Z,15.07
2019-05-07T06:14:33.021Z,11.50
2019-05-07T06:17:12.974Z,10.53
2019-05-07T06:19:47.012Z,13.77
2019-05-07T06:22:24.652Z,9.37
2019-05-07T06:24:56.554Z,10.07
2019-05-07T06:27:24.459Z,11.10
2019-05-07T06:29:52.444Z,12.17
2019-05-07T06:32:22.668Z,11.60
2019-05-07T06:34:52.139Z,11.00
2019-05-07T06:37:19.091Z,11.57
2019-05-07T06:39:55.338Z,14.27
2019-05-07T06:42:42.792Z,15.03
2019-05-07T06:45:17.657Z,12.17
2019-05-07T06:47:45.321Z,11.93
2019-05-07T06:50:13.081Z,10.23
2019-05-07T06:52:42.583Z,8.87
2019-05-07T06:55:12.075Z,9.37
2019-05-07T06:57:39.600Z,12.77
2019-05-07T07:00:19.648Z,9.33
2019-05-07T07:02:53.386Z,15.93
2019-05-07T07:05:26.301Z,11.80
2019-05-07T07:08:02.277Z,17.90
2019-05-07T07:10:52.109Z,14.47
2019-05-07T07:13:22.796Z,11.40
2019-05-07T07:15:52.210Z,12.70
2019-05-07T07:18:20.015Z,13.33
2019-05-07T07:20:48.685Z,16.80
2019-05-07T07:23:16.601Z,12.03
2019-05-07T07:25:44.253Z,19.17
2019-05-07T07:28:12.433Z,14.13
2019-05-07T07:30:48.940Z,18.07
2019-05-07T07:33:17.035Z,15.20
2019-05-07T07:35:44.755Z,14.93
2019-05-07T07:38:17.647Z,13.73
2019-05-07T07:40:46.884Z,16.60
2019-05-07T07:43:14.640Z,16.80
2019-05-07T07:45:42.309Z,15.43
2019-05-07T07:48:09.980Z,14.13
2019-05-07T07:50:37.648Z,14.07
2019-05-07T07:53:05.337Z,15.90
2019-05-07T07:55:42.470Z,15.17
2019-05-07T07:58:22.245Z,14.13
2019-05-07T08:00:58.164Z,14.53
2019-05-07T08:03:25.837Z,14.27
2019-05-07T08:05:53.542Z,14.03
2019-05-07T08:08:21.925Z,18.60
2019-05-07T08:10:51.855Z,16.53
2019-05-07T08:13:19.143Z,13.97
2019-05-07T08:15:46.835Z,13.87
2019-05-07T08:18:14.523Z,18.70
2019-05-07T08:20:43.063Z,15.53
2019-05-07T08:23:12.202Z,15.70
2019-05-07T08:25:45.224Z,15.47
2019-05-07T08:28:12.950Z,14.60
2019-05-07T08:30:42.710Z,17.13
2019-05-07T08:33:15.582Z,15.33
2019-05-07T08:35:48.876Z,18.77
2019-05-07T08:38:16.537Z,16.60
2019-05-07T08:40:44.220Z,15.30
2019-05-07T08:43:12.601Z,19.63
2019-05-07T08:45:45.828Z,19.20
2019-05-07T08:48:18.513Z,18.70
2019-05-07T08:50:46.171Z,18.37
2019-05-07T08:53:13.850Z,14.30
2019-05-07T08:55:42.450Z,18.97
2019-05-07T08:58:12.058Z,16.17
2019-05-07T09:00:41.686Z,16.03
2019-05-07T09:03:20.148Z,17.80
2019-05-07T09:05:38.475Z,23.40
2019-05-07T09:08:06.207Z,19.83
2019-05-07T09:10:33.882Z,18.37
2019-05-07T09:13:02.750Z,18.83
2019-05-07T09:15:32.049Z,21.30
2019-05-07T09:18:01.886Z,18.03
2019-05-07T09:20:29.251Z,17.97
2019-05-07T09:22:56.933Z,21.60
2019-05-07T09:25:24.607Z,19.30
2019-05-07T09:27:53.657Z,19.57
2019-05-07T09:30:34.691Z,20.67
2019-05-07T09:33:08.806Z,21.77
2019-05-07T09:35:42.379Z,21.67
2019-05-07T09:38:12.201Z,19.50
2019-05-07T09:40:41.999Z,20.47
2019-05-07T09:43:11.558Z,22.13
2019-05-07T09:45:38.859Z,24.93
2019-05-07T09:48:06.523Z,25.90
2019-05-07T09:50:34.217Z,22.93
2019-05-07T09:53:02.415Z,24.87
2019-05-07T09:55:32.322Z,22.93
2019-05-07T09:58:01.620Z,23.67
2019-05-07T10:00:29.021Z,24.33
2019-05-07T10:02:56.837Z,26.50
2019-05-07T10:05:24.695Z,22.97
2019-05-07T10:07:52.683Z,26.03
2019-05-07T10:10:22.279Z,23.70
2019-05-07T10:13:04.899Z,23.53
2019-05-07T10:15:33.106Z,22.67
2019-05-07T10:18:12.235Z,21.97
2019-05-07T10:20:41.980Z,24.80
2019-05-07T10:23:19.749Z,24.23
2019-05-07T10:25:47.424Z,21.70
2019-05-07T10:28:15.110Z,22.83
2019-05-07T10:30:42.923Z,22.10
2019-05-07T10:33:12.325Z,22.53
2019-05-07T10:35:40.276Z,23.20
2019-05-07T10:38:07.986Z,21.50
2019-05-07T10:40:35.674Z,18.83
2019-05-07T10:43:03.331Z,22.17
2019-05-07T10:45:43.975Z,20.43
2019-05-07T10:48:22.119Z,22.40
2019-05-07T10:50:51.693Z,23.57
2019-05-07T10:53:19.544Z,21.53
2019-05-07T10:55:47.392Z,20.17
2019-05-07T10:58:15.069Z,23.17
2019-05-07T11:00:42.732Z,24.90
2019-05-07T11:03:12.475Z,26.30
2019-05-07T11:05:41.738Z,24.27
2019-05-07T11:08:09.259Z,25.70
2019-05-07T11:10:36.935Z,21.53
2019-05-07T11:13:04.626Z,24.33
2019-05-07T11:15:32.891Z,22.10
2019-05-07T11:18:08.826Z,22.70
2019-05-07T11:20:47.411Z,19.83
2019-05-07T11:23:05.920Z,22.57
2019-05-07T11:25:33.607Z,19.60
2019-05-07T11:28:02.862Z,19.13
2019-05-07T11:30:32.042Z,18.87
2019-05-07T11:32:59.921Z,17.50
2019-05-07T11:35:27.893Z,16.97
2019-05-07T11:37:55.668Z,17.27
2019-05-07T11:40:23.469Z,16.80
2019-05-07T11:42:56.491Z,16.17
2019-05-07T11:45:32.027Z,20.23
2019-05-07T11:47:59.581Z,16.43
2019-05-07T11:50:35.871Z,16.07
2019-05-07T11:53:06.730Z,13.23
2019-05-07T11:55:34.410Z,15.10
2019-05-07T11:58:02.520Z,16.40
2019-05-07T12:00:35.801Z,14.73
2019-05-07T12:03:03.640Z,15.57
2019-05-07T12:05:33.176Z,15.60
2019-05-07T12:08:02.331Z,15.40
2019-05-07T12:10:32.588Z,15.77
2019-05-07T12:13:02.181Z,16.00
2019-05-07T12:15:29.396Z,18.23
2019-05-07T12:17:57.093Z,15.70
2019-05-07T12:20:24.915Z,14.27
2019-05-07T12:22:52.583Z,12.17
2019-05-07T12:25:20.246Z,13.00
2019-05-07T12:27:47.923Z,15.20
2019-05-07T12:30:19.623Z,12.07
2019-05-07T12:32:55.447Z,14.13
2019-05-07T12:35:23.138Z,10.23
2019-05-07T12:37:51.059Z,10.20
2019-05-07T12:40:18.741Z,12.10
2019-05-07T12:42:46.486Z,11.07
2019-05-07T12:45:14.410Z,12.13
2019-05-07T12:47:42.229Z,10.53
2019-05-07T12:50:09.895Z,10.03
2019-05-07T12:52:44.280Z,10.20
2019-05-07T12:55:18.620Z,11.03
2019-05-07T12:57:46.596Z,10.20
2019-05-07T13:00:19.585Z,8.03
2019-05-07T13:03:07.117Z,9.80
2019-05-07T13:05:34.940Z,8.40
2019-05-07T13:08:02.617Z,9.27
2019-05-07T13:10:32.355Z,6.30
2019-05-07T13:13:02.056Z,7.70
2019-05-07T13:15:29.010Z,7.87
2019-05-07T13:17:56.668Z,5.73
2019-05-07T13:20:24.437Z,5.43
2019-05-07T13:22:52.236Z,5.07
2019-05-07T13:25:21.862Z,5.30
2019-05-07T13:27:51.993Z,7.20
2019-05-07T13:30:18.969Z,5.27
2019-05-07T13:32:48.203Z,6.53
2019-05-07T13:35:16.067Z,5.73
2019-05-07T13:37:48.872Z,5.40
2019-05-07T13:40:23.742Z,6.47
2019-05-07T13:42:58.709Z,3.83
2019-05-07T13:45:41.664Z,4.57
2019-05-07T13:48:12.502Z,4.47
2019-05-07T13:50:41.938Z,5.47
2019-05-07T13:53:09.541Z,6.53
2019-05-07T13:55:37.199Z,4.17
2019-05-07T13:58:04.863Z,4.67
2019-05-07T14:00:37.360Z,5.17
2019-05-07T14:03:05.023Z,5.07
2019-05-07T14:05:32.901Z,4.20
2019-05-07T14:08:00.800Z,4.53
2019-05-07T14:10:28.459Z,3.47
2019-05-07T14:13:07.892Z,3.77
2019-05-07T14:15:25.803Z,4.30
2019-05-07T14:17:55.099Z,3.73
2019-05-07T14:20:22.879Z,2.90
2019-05-07T14:22:51.719Z,3.73
2019-05-07T14:25:19.505Z,4.53
2019-05-07T14:27:47.178Z,3.67
2019-05-07T14:30:14.835Z,3.70
2019-05-07T14:32:49.902Z,4.23
2019-05-07T14:35:25.563Z,4.03
2019-05-07T14:37:58.259Z,5.37
2019-05-07T14:40:25.939Z,3.47
2019-05-07T14:43:00.084Z,4.70
2019-05-07T14:45:27.748Z,5.20
2019-05-07T14:47:55.433Z,3.43
2019-05-07T14:50:23.111Z,2.87
2019-05-07T14:52:52.352Z,4.97
2019-05-07T14:55:22.164Z,3.87
2019-05-07T14:57:49.782Z,3.20
2019-05-07T15:00:17.448Z,3.50
2019-05-07T15:02:45.109Z,3.30
2019-05-07T15:05:12.772Z,4.60
2019-05-07T15:07:40.431Z,3.33
2019-05-07T15:10:08.093Z,4.07
2019-05-07T15:12:35.767Z,3.83
2019-05-07T15:15:03.429Z,4.13
2019-05-07T15:17:37.183Z,3.37
2019-05-07T15:20:04.968Z,4.47
2019-05-07T15:22:48.637Z,2.77
2019-05-07T15:25:12.020Z,3.20
2019-05-07T15:27:39.735Z,2.37
2019-05-07T15:30:07.686Z,2.60
2019-05-07T15:32:35.416Z,2.93
2019-05-07T15:35:03.071Z,2.37
2019-05-07T15:37:32.157Z,3.50
2019-05-07T15:40:02.239Z,2.63
2019-05-07T15:42:29.489Z,2.20
2019-05-07T15:44:57.157Z,2.63
2019-05-07T15:47:31.711Z,3.20
2019-05-07T15:49:59.596Z,4.00
2019-05-07T15:52:32.774Z,4.60
2019-05-07T15:55:02.614Z,2.50
2019-05-07T15:57:30.200Z,2.87
2019-05-07T16:00:05.619Z,2.37
2019-05-07T16:02:36.605Z,2.90
2019-05-07T16:05:05.068Z,4.00
2019-05-07T16:07:32.891Z,2.73
2019-05-07T16:10:00.778Z,2.73
2019-05-07T16:12:28.429Z,3.63
2019-05-07T16:14:56.100Z,2.40
2019-05-07T16:17:28.956Z,3.00
2019-05-07T16:19:56.615Z,3.60
2019-05-07T16:22:29.559Z,3.57
2019-05-07T16:24:57.233Z,3.83
2019-05-07T16:27:24.904Z,3.23
2019-05-07T16:29:52.808Z,2.50
2019-05-07T16:32:23.869Z,3.60
2019-05-07T16:34:49.915Z,3.90
2019-05-07T16:37:17.619Z,3.53
2019-05-07T16:39:45.393Z,3.03
2019-05-07T16:42:13.087Z,2.87
2019-05-07T16:44:41.744Z,3.70
2019-05-07T16:47:09.661Z,3.40
2019-05-07T16:49:37.320Z,4.03
2019-05-07T16:52:04.987Z,4.73
2019-05-07T16:54:32.665Z,4.63
2019-05-07T16:57:05.607Z,5.73
2019-05-07T16:59:33.293Z,3.30
2019-05-07T17:02:04.329Z,4.20
2019-05-07T17:04:32.071Z,4.93
2019-05-07T17:07:02.469Z,7.57
2019-05-07T17:09:32.259Z,7.30
2019-05-07T17:12:01.519Z,9.37
2019-05-07T17:14:29.213Z,7.77
2019-05-07T17:16:56.872Z,9.17
2019-05-07T17:19:24.536Z,7.97
2019-05-07T17:21:52.200Z,8.97
2019-05-07T17:24:19.871Z,9.27
2019-05-07T17:26:47.648Z,10.70
2019-05-07T17:29:15.332Z,8.70
2019-05-07T17:31:43.009Z,7.23
2019-05-07T17:34:11.811Z,7.77
2019-05-07T17:36:41.907Z,10.23
2019-05-07T17:39:09.490Z,9.30
2019-05-07T17:41:37.152Z,9.53
2019-05-07T17:44:04.812Z,9.30
2019-05-07T17:46:32.704Z,9.27
2019-05-07T17:49:02.483Z,9.90
2019-05-07T17:51:44.808Z,10.67
2019-05-07T17:54:13.171Z,9.57
2019-05-07T17:56:42.219Z,10.50
2019-05-07T17:59:11.997Z,10.03
2019-05-07T18:01:52.956Z,11.63
2019-05-07T18:04:20.969Z,9.67
2019-05-07T18:06:48.644Z,11.73
2019-05-07T18:09:16.356Z,13.13
2019-05-07T18:11:44.008Z,13.23
2019-05-07T18:14:11.685Z,12.47
2019-05-07T18:16:44.571Z,10.40
2019-05-07T18:19:12.633Z,14.83
2019-05-07T18:21:41.789Z,10.73
2019-05-07T18:24:13.697Z,12.93
2019-05-07T18:26:39.010Z,17.00
2019-05-07T18:29:06.696Z,12.23
2019-05-07T18:31:39.539Z,10.07
2019-05-07T18:34:07.205Z,13.13
2019-05-07T18:36:34.855Z,42.20
2019-05-07T18:39:02.537Z,19.70
2019-05-07T18:41:30.205Z,13.63
2019-05-07T18:44:08.938Z,28.60
2019-05-07T18:46:27.252Z,76.10
2019-05-07T18:48:54.928Z,35.30
2019-05-07T18:51:22.591Z,21.33
2019-05-07T18:53:51.980Z,18.77
2019-05-07T18:56:21.899Z,27.20
2019-05-07T18:58:49.123Z,20.77
2019-05-07T19:01:18.459Z,18.13
2019-05-07T19:03:46.407Z,12.13
2019-05-07T19:06:14.071Z,10.03
2019-05-07T19:08:42.225Z,10.00
2019-05-07T19:11:12.083Z,10.50
2019-05-07T19:13:41.760Z,12.20
2019-05-07T19:16:08.849Z,10.37
2019-05-07T19:18:36.526Z,14.13
2019-05-07T19:21:06.742Z,11.90
2019-05-07T19:23:33.558Z,13.03
2019-05-07T19:26:02.467Z,10.10
2019-05-07T19:28:30.294Z,13.53
2019-05-07T19:30:57.963Z,12.93
2019-05-07T19:33:27.200Z,12.67
2019-05-07T19:35:55.109Z,12.60
2019-05-07T19:38:22.782Z,11.43
2019-05-07T19:40:52.661Z,17.63
2019-05-07T19:43:19.812Z,11.20
2019-05-07T19:45:47.475Z,13.27
2019-05-07T19:48:15.201Z,12.40
2019-05-07T19:50:42.887Z,15.30
2019-05-07T19:53:12.535Z,12.37
2019-05-07T19:56:02.825Z,13.47
2019-05-07T19:58:32.550Z,15.67
2019-05-07T20:01:00.892Z,13.03
2019-05-07T20:03:28.560Z,14.13
2019-05-07T20:05:56.231Z,10.47
2019-05-07T20:08:23.892Z,12.80
2019-05-07T20:10:57.294Z,14.20
2019-05-07T20:13:27.251Z,12.67
2019-05-07T20:16:02.705Z,13.77
2019-05-07T20:18:30.096Z,14.07
2019-05-07T20:20:57.767Z,14.03
2019-05-07T20:23:25.435Z,14.60
2019-05-07T20:25:53.113Z,14.03
2019-05-07T20:28:21.829Z,13.70
2019-05-07T20:30:49.739Z,15.30
2019-05-07T20:33:17.407Z,13.97
2019-05-07T20:35:45.107Z,11.10
2019-05-07T20:38:12.765Z,11.07
2019-05-07T20:40:41.950Z,13.57
2019-05-07T20:43:09.796Z,10.63
2019-05-07T20:45:37.477Z,12.73
2019-05-07T20:48:05.144Z,12.03
2019-05-07T20:50:33.359Z,13.87
2019-05-07T20:53:02.060Z,11.43
2019-05-07T20:55:36.867Z,15.10
2019-05-07T20:58:04.563Z,13.00
2019-05-07T21:00:32.684Z,13.50
2019-05-07T21:03:05.824Z,12.60
2019-05-07T21:05:33.479Z,12.10
2019-05-07T21:08:01.140Z,13.17
2019-05-07T21:10:28.817Z,13.00
2019-05-07T21:12:56.475Z,14.23
2019-05-07T21:15:24.135Z,12.27
2019-05-07T21:17:52.616Z,12.40
2019-05-07T21:20:22.730Z,12.57
2019-05-07T21:22:51.898Z,15.27
2019-05-07T21:25:19.313Z,11.67
2019-05-07T21:27:47.028Z,12.53
2019-05-07T21:30:17.503Z,13.23
2019-05-07T21:32:44.047Z,13.63
2019-05-07T21:35:11.704Z,13.83
2019-05-07T21:37:41.700Z,14.77
2019-05-07T21:40:08.741Z,13.37
2019-05-07T21:42:36.410Z,13.90
2019-05-07T21:45:04.100Z,14.43
2019-05-07T21:47:32.663Z,14.00
2019-05-07T21:50:02.543Z,14.90
2019-05-07T21:52:32.895Z,13.10
2019-05-07T21:55:07.132Z,10.97
2019-05-07T21:57:45.176Z,18.50
2019-05-07T22:00:23.920Z,14.27
2019-05-07T22:02:52.571Z,12.23
2019-05-07T22:05:22.398Z,12.40
2019-05-07T22:07:49.844Z,12.40
2019-05-07T22:10:17.512Z,14.03
2019-05-07T22:12:45.163Z,12.80
2019-05-07T22:15:13.340Z,11.23
2019-05-07T22:17:44.162Z,13.40
2019-05-07T22:20:11.988Z,12.03
2019-05-07T22:22:39.760Z,13.97
2019-05-07T22:25:07.474Z,13.30
2019-05-07T22:27:35.171Z,11.03
2019-05-07T22:30:03.418Z,10.93
2019-05-07T22:32:38.674Z,12.27
2019-05-07T22:35:12.903Z,10.80
2019-05-07T22:37:40.569Z,10.93
2019-05-07T22:40:08.225Z,11.07
2019-05-07T22:42:35.897Z,13.67
2019-05-07T22:45:03.643Z,11.87
2019-05-07T22:47:32.667Z,9.67
2019-05-07T22:50:02.579Z,9.90
2019-05-07T22:52:29.834Z,12.77
2019-05-07T22:54:57.621Z,11.07
2019-05-07T22:57:32.697Z,11.10
2019-05-07T23:00:02.112Z,9.30
2019-05-07T23:02:31.595Z,10.97
2019-05-07T23:04:59.283Z,10.60
2019-05-07T23:07:26.941Z,12.10
2019-05-07T23:09:54.606Z,10.80
2019-05-07T23:12:22.266Z,11.87
2019-05-07T23:14:51.462Z,12.03
2019-05-07T23:17:19.309Z,12.87
2019-05-07T23:19:47.032Z,10.33
2019-05-07T23:22:14.692Z,10.53
2019-05-07T23:24:42.647Z,11.50
2019-05-07T23:27:12.139Z,11.50
2019-05-07T23:29:42.031Z,11.07
2019-05-07T23:32:09.142Z,12.13
2019-05-07T23:34:36.816Z,10.47
2019-05-07T23:37:04.467Z,9.13
2019-05-07T23:39:34.299Z,11.03
2019-05-07T23:42:09.067Z,12.27
2019-05-07T23:44:36.737Z,10.83
2019-05-07T23:47:04.387Z,11.50
2019-05-07T23:49:32.298Z,12.23
2019-05-07T23:52:02.254Z,13.43
2019-05-07T23:54:31.737Z,12.10
2019-05-07T23:57:05.746Z,13.50
2019-05-07T23:59:28.251Z,12.23
